sensor_id;sensor_type;location;lat;lon;timestamp;P1;durP1;ratioP1;P2;durP2;ratioP2
1414;SDS011;702;49.466;11.086;2023-09-07T00:00:29;6.63;;;6.00;;
1414;SDS011;702;49.466;11.086;2023-09-07T00:02:56;5.87;;;5.37;;
1414;SDS011;702;49.466;11.086;2023-09-07T00:05:27;5.27;;;4.77;;
1414;SDS011;702;49.466;11.086;2023-09-07T00:07:54;6.20;;;5.70;;
1414;SDS011;702;49.466;11.086;2023-09-07T00:10:21;5.80;;;5.20;;
1414;SDS011;702;49.466;11.086;2023-09-07T00:12:51;7.40;;;6.00;;
1414;SDS011;702;49.466;11.086;2023-09-07T00:15:19;5.80;;;5.30;;
1414;SDS011;702;49.466;11.086;2023-09-07T00:17:46;6.33;;;5.73;;
1414;SDS011;702;49.466;11.086;2023-09-07T00:20:15;6.20;;;5.70;;
1414;SDS011;702;49.466;11.086;2023-09-07T00:22:44;7.60;;;5.60;;
1414;SDS011;702;49.466;11.086;2023-09-07T00:25:11;5.97;;;5.47;;
1414;SDS011;702;49.466;11.086;2023-09-07T00:27:39;6.03;;;5.43;;
1414;SDS011;702;49.466;11.086;2023-09-07T00:30:06;6.70;;;6.10;;
1414;SDS011;702;49.466;11.086;2023-09-07T00:32:35;6.70;;;5.80;;
1414;SDS011;702;49.466;11.086;2023-09-07T00:35:04;6.23;;;5.63;;
1414;SDS011;702;49.466;11.086;2023-09-07T00:37:32;6.13;;;5.53;;
1414;SDS011;702;49.466;11.086;2023-09-07T00:40:01;5.87;;;5.37;;
1414;SDS011;702;49.466;11.086;2023-09-07T00:42:30;7.07;;;5.67;;
1414;SDS011;702;49.466;11.086;2023-09-07T00:44:57;6.57;;;6.07;;
1414;SDS011;702;49.466;11.086;2023-09-07T00:47:24;6.63;;;5.93;;
1414;SDS011;702;49.466;11.086;2023-09-07T00:49:52;6.33;;;5.60;;
1414;SDS011;702;49.466;11.086;2023-09-07T00:52:20;6.13;;;5.53;;
1414;SDS011;702;49.466;11.086;2023-09-07T00:54:48;6.70;;;6.20;;
1414;SDS011;702;49.466;11.086;2023-09-07T00:57:17;5.90;;;5.40;;
1414;SDS011;702;49.466;11.086;2023-09-07T00:59:45;6.50;;;6.00;;
1414;SDS011;702;49.466;11.086;2023-09-07T01:02:12;7.60;;;6.83;;
1414;SDS011;702;49.466;11.086;2023-09-07T01:04:39;6.90;;;6.30;;
1414;SDS011;702;49.466;11.086;2023-09-07T01:07:09;7.83;;;6.90;;
1414;SDS011;702;49.466;11.086;2023-09-07T01:09:42;6.83;;;6.27;;
1414;SDS011;702;49.466;11.086;2023-09-07T01:12:14;7.10;;;6.40;;
1414;SDS011;702;49.466;11.086;2023-09-07T01:14:42;6.73;;;6.13;;
1414;SDS011;702;49.466;11.086;2023-09-07T01:17:12;6.50;;;6.00;;
1414;SDS011;702;49.466;11.086;2023-09-07T01:19:41;8.93;;;6.63;;
1414;SDS011;702;49.466;11.086;2023-09-07T01:22:10;6.70;;;5.97;;
1414;SDS011;702;49.466;11.086;2023-09-07T01:24:40;6.90;;;6.20;;
1414;SDS011;702;49.466;11.086;2023-09-07T01:27:09;8.67;;;6.47;;
1414;SDS011;702;49.466;11.086;2023-09-07T01:29:39;7.50;;;6.77;;
1414;SDS011;702;49.466;11.086;2023-09-07T01:32:06;7.17;;;6.57;;
1414;SDS011;702;49.466;11.086;2023-09-07T01:34:35;6.30;;;5.70;;
1414;SDS011;702;49.466;11.086;2023-09-07T01:37:03;6.93;;;6.23;;
1414;SDS011;702;49.466;11.086;2023-09-07T01:39:31;7.93;;;7.00;;
1414;SDS011;702;49.466;11.086;2023-09-07T01:41:59;7.20;;;6.50;;
1414;SDS011;702;49.466;11.086;2023-09-07T01:44:26;7.50;;;6.83;;
1414;SDS011;702;49.466;11.086;2023-09-07T01:46:55;7.30;;;6.70;;
1414;SDS011;702;49.466;11.086;2023-09-07T01:49:23;7.40;;;6.70;;
1414;SDS011;702;49.466;11.086;2023-09-07T01:51:50;9.87;;;6.93;;
1414;SDS011;702;49.466;11.086;2023-09-07T01:54:21;7.50;;;6.80;;
1414;SDS011;702;49.466;11.086;2023-09-07T01:56:49;7.70;;;7.10;;
1414;SDS011;702;49.466;11.086;2023-09-07T01:59:18;8.20;;;7.10;;
1414;SDS011;702;49.466;11.086;2023-09-07T02:01:45;9.20;;;6.80;;
1414;SDS011;702;49.466;11.086;2023-09-07T02:04:13;7.63;;;7.00;;
1414;SDS011;702;49.466;11.086;2023-09-07T02:06:40;7.40;;;6.70;;
1414;SDS011;702;49.466;11.086;2023-09-07T02:09:08;7.10;;;6.40;;
1414;SDS011;702;49.466;11.086;2023-09-07T02:11:35;7.00;;;6.30;;
1414;SDS011;702;49.466;11.086;2023-09-07T02:14:03;7.20;;;6.57;;
1414;SDS011;702;49.466;11.086;2023-09-07T02:16:31;7.10;;;6.50;;
1414;SDS011;702;49.466;11.086;2023-09-07T02:19:02;7.33;;;6.50;;
1414;SDS011;702;49.466;11.086;2023-09-07T02:21:29;7.90;;;6.47;;
1414;SDS011;702;49.466;11.086;2023-09-07T02:23:57;7.57;;;6.80;;
1414;SDS011;702;49.466;11.086;2023-09-07T02:26:25;11.60;;;7.60;;
1414;SDS011;702;49.466;11.086;2023-09-07T02:28:52;7.30;;;6.57;;
1414;SDS011;702;49.466;11.086;2023-09-07T02:31:21;7.30;;;6.70;;
1414;SDS011;702;49.466;11.086;2023-09-07T02:33:48;8.63;;;7.30;;
1414;SDS011;702;49.466;11.086;2023-09-07T02:36:16;7.47;;;6.47;;
1414;SDS011;702;49.466;11.086;2023-09-07T02:38:43;6.90;;;6.30;;
1414;SDS011;702;49.466;11.086;2023-09-07T02:41:11;7.77;;;6.97;;
1414;SDS011;702;49.466;11.086;2023-09-07T02:43:38;7.23;;;6.63;;
1414;SDS011;702;49.466;11.086;2023-09-07T02:46:06;8.03;;;6.77;;
1414;SDS011;702;49.466;11.086;2023-09-07T02:48:35;8.00;;;7.20;;
1414;SDS011;702;49.466;11.086;2023-09-07T02:51:02;7.60;;;6.90;;
1414;SDS011;702;49.466;11.086;2023-09-07T02:53:30;9.00;;;8.20;;
1414;SDS011;702;49.466;11.086;2023-09-07T02:55:57;8.33;;;7.60;;
1414;SDS011;702;49.466;11.086;2023-09-07T02:58:27;8.03;;;7.23;;
1414;SDS011;702;49.466;11.086;2023-09-07T03:00:55;7.67;;;7.07;;
1414;SDS011;702;49.466;11.086;2023-09-07T03:03:22;8.50;;;7.43;;
1414;SDS011;702;49.466;11.086;2023-09-07T03:05:52;7.70;;;7.07;;
1414;SDS011;702;49.466;11.086;2023-09-07T03:08:19;9.03;;;8.23;;
1414;SDS011;702;49.466;11.086;2023-09-07T03:10:47;8.80;;;8.00;;
1414;SDS011;702;49.466;11.086;2023-09-07T03:13:14;8.53;;;7.63;;
1414;SDS011;702;49.466;11.086;2023-09-07T03:15:41;8.77;;;7.93;;
1414;SDS011;702;49.466;11.086;2023-09-07T03:18:09;8.60;;;7.90;;
1414;SDS011;702;49.466;11.086;2023-09-07T03:20:36;7.97;;;7.17;;
1414;SDS011;702;49.466;11.086;2023-09-07T03:23:04;8.47;;;7.67;;
1414;SDS011;702;49.466;11.086;2023-09-07T03:25:32;9.20;;;8.40;;
1414;SDS011;702;49.466;11.086;2023-09-07T03:27:59;8.73;;;8.03;;
1414;SDS011;702;49.466;11.086;2023-09-07T03:30:26;8.83;;;8.07;;
1414;SDS011;702;49.466;11.086;2023-09-07T03:32:54;9.50;;;8.27;;
1414;SDS011;702;49.466;11.086;2023-09-07T03:35:21;9.50;;;8.60;;
1414;SDS011;702;49.466;11.086;2023-09-07T03:37:49;9.27;;;8.37;;
1414;SDS011;702;49.466;11.086;2023-09-07T03:40:18;11.03;;;8.97;;
1414;SDS011;702;49.466;11.086;2023-09-07T03:42:45;9.93;;;7.70;;
1414;SDS011;702;49.466;11.086;2023-09-07T03:45:12;8.03;;;7.33;;
1414;SDS011;702;49.466;11.086;2023-09-07T03:47:38;8.20;;;7.20;;
1414;SDS011;702;49.466;11.086;2023-09-07T03:50:06;9.30;;;8.33;;
1414;SDS011;702;49.466;11.086;2023-09-07T03:52:34;9.77;;;8.20;;
1414;SDS011;702;49.466;11.086;2023-09-07T03:55:01;8.97;;;8.27;;
1414;SDS011;702;49.466;11.086;2023-09-07T03:57:30;9.23;;;8.43;;
1414;SDS011;702;49.466;11.086;2023-09-07T03:59:58;9.00;;;8.10;;
1414;SDS011;702;49.466;11.086;2023-09-07T04:02:26;8.40;;;7.60;;
1414;SDS011;702;49.466;11.086;2023-09-07T04:04:54;8.83;;;7.83;;
1414;SDS011;702;49.466;11.086;2023-09-07T04:07:21;10.20;;;8.43;;
1414;SDS011;702;49.466;11.086;2023-09-07T04:09:49;11.73;;;9.47;;
1414;SDS011;702;49.466;11.086;2023-09-07T04:12:16;11.53;;;8.47;;
1414;SDS011;702;49.466;11.086;2023-09-07T04:14:45;10.37;;;9.43;;
1414;SDS011;702;49.466;11.086;2023-09-07T04:17:12;9.53;;;8.70;;
1414;SDS011;702;49.466;11.086;2023-09-07T04:19:40;8.83;;;8.10;;
1414;SDS011;702;49.466;11.086;2023-09-07T04:22:08;11.53;;;8.47;;
1414;SDS011;702;49.466;11.086;2023-09-07T04:24:37;9.50;;;8.70;;
1414;SDS011;702;49.466;11.086;2023-09-07T04:27:04;9.60;;;8.80;;
1414;SDS011;702;49.466;11.086;2023-09-07T04:29:32;10.27;;;9.20;;
1414;SDS011;702;49.466;11.086;2023-09-07T04:32:01;9.50;;;8.70;;
1414;SDS011;702;49.466;11.086;2023-09-07T04:34:31;9.83;;;8.93;;
1414;SDS011;702;49.466;11.086;2023-09-07T04:36:58;10.60;;;9.50;;
1414;SDS011;702;49.466;11.086;2023-09-07T04:39:26;10.50;;;9.60;;
1414;SDS011;702;49.466;11.086;2023-09-07T04:41:53;10.50;;;9.50;;
1414;SDS011;702;49.466;11.086;2023-09-07T04:44:20;10.57;;;9.63;;
1414;SDS011;702;49.466;11.086;2023-09-07T04:46:47;9.83;;;8.80;;
1414;SDS011;702;49.466;11.086;2023-09-07T04:49:16;10.03;;;9.13;;
1414;SDS011;702;49.466;11.086;2023-09-07T04:51:43;10.43;;;9.47;;
1414;SDS011;702;49.466;11.086;2023-09-07T04:54:10;10.23;;;9.33;;
1414;SDS011;702;49.466;11.086;2023-09-07T04:56:38;10.63;;;9.53;;
1414;SDS011;702;49.466;11.086;2023-09-07T04:59:05;10.07;;;9.17;;
1414;SDS011;702;49.466;11.086;2023-09-07T05:01:34;9.40;;;8.47;;
1414;SDS011;702;49.466;11.086;2023-09-07T05:04:01;15.37;;;10.00;;
1414;SDS011;702;49.466;11.086;2023-09-07T05:06:30;9.93;;;8.80;;
1414;SDS011;702;49.466;11.086;2023-09-07T05:09:02;10.43;;;9.43;;
1414;SDS011;702;49.466;11.086;2023-09-07T05:11:29;10.70;;;8.67;;
1414;SDS011;702;49.466;11.086;2023-09-07T05:13:59;10.13;;;9.10;;
1414;SDS011;702;49.466;11.086;2023-09-07T05:16:27;9.07;;;8.17;;
1414;SDS011;702;49.466;11.086;2023-09-07T05:18:54;9.10;;;8.30;;
1414;SDS011;702;49.466;11.086;2023-09-07T05:21:21;9.10;;;8.20;;
1414;SDS011;702;49.466;11.086;2023-09-07T05:23:50;11.07;;;8.00;;
1414;SDS011;702;49.466;11.086;2023-09-07T05:26:20;8.70;;;7.80;;
1414;SDS011;702;49.466;11.086;2023-09-07T05:28:49;9.40;;;8.50;;
1414;SDS011;702;49.466;11.086;2023-09-07T05:31:16;9.23;;;8.33;;
1414;SDS011;702;49.466;11.086;2023-09-07T05:33:43;8.90;;;8.10;;
1414;SDS011;702;49.466;11.086;2023-09-07T05:36:11;10.23;;;8.67;;
1414;SDS011;702;49.466;11.086;2023-09-07T05:38:38;10.40;;;8.77;;
1414;SDS011;702;49.466;11.086;2023-09-07T05:41:07;10.50;;;9.50;;
1414;SDS011;702;49.466;11.086;2023-09-07T05:43:34;10.03;;;9.03;;
1414;SDS011;702;49.466;11.086;2023-09-07T05:46:01;9.07;;;8.27;;
1414;SDS011;702;49.466;11.086;2023-09-07T05:48:28;10.07;;;9.03;;
1414;SDS011;702;49.466;11.086;2023-09-07T05:50:55;10.23;;;9.23;;
1414;SDS011;702;49.466;11.086;2023-09-07T05:53:23;9.73;;;8.73;;
1414;SDS011;702;49.466;11.086;2023-09-07T05:55:51;10.07;;;9.17;;
1414;SDS011;702;49.466;11.086;2023-09-07T05:58:20;9.57;;;8.53;;
1414;SDS011;702;49.466;11.086;2023-09-07T06:00:47;10.40;;;9.40;;
1414;SDS011;702;49.466;11.086;2023-09-07T06:03:14;10.27;;;9.37;;
1414;SDS011;702;49.466;11.086;2023-09-07T06:05:41;9.47;;;8.57;;
1414;SDS011;702;49.466;11.086;2023-09-07T06:08:09;9.40;;;8.37;;
1414;SDS011;702;49.466;11.086;2023-09-07T06:10:37;9.30;;;8.40;;
1414;SDS011;702;49.466;11.086;2023-09-07T06:13:04;7.53;;;6.87;;
1414;SDS011;702;49.466;11.086;2023-09-07T06:15:33;8.97;;;8.07;;
1414;SDS011;702;49.466;11.086;2023-09-07T06:18:00;8.03;;;7.23;;
1414;SDS011;702;49.466;11.086;2023-09-07T06:20:28;8.90;;;8.10;;
1414;SDS011;702;49.466;11.086;2023-09-07T06:22:55;9.17;;;7.47;;
1414;SDS011;702;49.466;11.086;2023-09-07T06:25:22;8.43;;;7.63;;
1414;SDS011;702;49.466;11.086;2023-09-07T06:27:50;8.50;;;7.57;;
1414;SDS011;702;49.466;11.086;2023-09-07T06:30:17;7.70;;;7.00;;
1414;SDS011;702;49.466;11.086;2023-09-07T06:32:46;7.07;;;6.47;;
1414;SDS011;702;49.466;11.086;2023-09-07T06:35:13;9.10;;;7.23;;
1414;SDS011;702;49.466;11.086;2023-09-07T06:37:40;7.50;;;6.80;;
1414;SDS011;702;49.466;11.086;2023-09-07T06:40:09;7.03;;;6.43;;
1414;SDS011;702;49.466;11.086;2023-09-07T06:42:37;7.43;;;6.83;;
1414;SDS011;702;49.466;11.086;2023-09-07T06:45:04;8.37;;;7.57;;
1414;SDS011;702;49.466;11.086;2023-09-07T06:47:33;7.00;;;6.40;;
1414;SDS011;702;49.466;11.086;2023-09-07T06:50:02;7.20;;;6.60;;
1414;SDS011;702;49.466;11.086;2023-09-07T06:52:31;7.27;;;6.57;;
1414;SDS011;702;49.466;11.086;2023-09-07T06:54:58;9.90;;;7.57;;
1414;SDS011;702;49.466;11.086;2023-09-07T06:57:25;7.73;;;7.00;;
1414;SDS011;702;49.466;11.086;2023-09-07T06:59:52;7.00;;;6.47;;
1414;SDS011;702;49.466;11.086;2023-09-07T07:02:20;7.17;;;6.57;;
1414;SDS011;702;49.466;11.086;2023-09-07T07:04:48;7.63;;;6.83;;
1414;SDS011;702;49.466;11.086;2023-09-07T07:07:17;6.43;;;5.80;;
1414;SDS011;702;49.466;11.086;2023-09-07T07:09:44;7.70;;;6.73;;
1414;SDS011;702;49.466;11.086;2023-09-07T07:12:12;7.13;;;6.43;;
1414;SDS011;702;49.466;11.086;2023-09-07T07:14:39;9.70;;;5.83;;
1414;SDS011;702;49.466;11.086;2023-09-07T07:17:06;6.90;;;6.30;;
1414;SDS011;702;49.466;11.086;2023-09-07T07:19:34;6.63;;;6.03;;
1414;SDS011;702;49.466;11.086;2023-09-07T07:22:01;8.53;;;6.60;;
1414;SDS011;702;49.466;11.086;2023-09-07T07:24:30;6.63;;;6.03;;
1414;SDS011;702;49.466;11.086;2023-09-07T07:26:58;7.17;;;6.57;;
1414;SDS011;702;49.466;11.086;2023-09-07T07:29:25;8.60;;;6.27;;
1414;SDS011;702;49.466;11.086;2023-09-07T07:31:53;8.20;;;6.57;;
1414;SDS011;702;49.466;11.086;2023-09-07T07:34:20;7.43;;;6.73;;
1414;SDS011;702;49.466;11.086;2023-09-07T07:36:47;7.27;;;6.53;;
1414;SDS011;702;49.466;11.086;2023-09-07T07:39:15;7.73;;;6.20;;
1414;SDS011;702;49.466;11.086;2023-09-07T07:41:44;7.33;;;6.00;;
1414;SDS011;702;49.466;11.086;2023-09-07T07:44:12;10.13;;;7.93;;
1414;SDS011;702;49.466;11.086;2023-09-07T07:46:39;13.03;;;8.37;;
1414;SDS011;702;49.466;11.086;2023-09-07T07:49:07;11.43;;;6.90;;
1414;SDS011;702;49.466;11.086;2023-09-07T07:51:34;10.80;;;6.87;;
1414;SDS011;702;49.466;11.086;2023-09-07T07:54:01;8.33;;;7.47;;
1414;SDS011;702;49.466;11.086;2023-09-07T07:56:29;11.53;;;7.20;;
1414;SDS011;702;49.466;11.086;2023-09-07T07:58:58;6.27;;;5.67;;
1414;SDS011;702;49.466;11.086;2023-09-07T08:01:25;6.47;;;5.80;;
1414;SDS011;702;49.466;11.086;2023-09-07T08:03:52;7.03;;;6.33;;
1414;SDS011;702;49.466;11.086;2023-09-07T08:06:21;6.27;;;5.67;;
1414;SDS011;702;49.466;11.086;2023-09-07T08:08:48;6.97;;;6.30;;
1414;SDS011;702;49.466;11.086;2023-09-07T08:11:16;6.40;;;5.80;;
1414;SDS011;702;49.466;11.086;2023-09-07T08:13:46;6.73;;;5.93;;
1414;SDS011;702;49.466;11.086;2023-09-07T08:16:15;7.77;;;5.40;;
1414;SDS011;702;49.466;11.086;2023-09-07T08:18:43;6.10;;;5.50;;
1414;SDS011;702;49.466;11.086;2023-09-07T08:21:13;5.93;;;5.40;;
1414;SDS011;702;49.466;11.086;2023-09-07T08:23:41;5.97;;;5.50;;
1414;SDS011;702;49.466;11.086;2023-09-07T08:26:10;7.40;;;5.30;;
1414;SDS011;702;49.466;11.086;2023-09-07T08:28:38;6.00;;;5.07;;
1414;SDS011;702;49.466;11.086;2023-09-07T08:31:05;5.60;;;5.10;;
1414;SDS011;702;49.466;11.086;2023-09-07T08:33:33;6.17;;;5.60;;
1414;SDS011;702;49.466;11.086;2023-09-07T08:36:05;6.00;;;5.50;;
1414;SDS011;702;49.466;11.086;2023-09-07T08:38:34;5.60;;;5.10;;
1414;SDS011;702;49.466;11.086;2023-09-07T08:41:02;5.93;;;5.30;;
1414;SDS011;702;49.466;11.086;2023-09-07T08:43:32;5.77;;;5.17;;
1414;SDS011;702;49.466;11.086;2023-09-07T08:46:04;6.83;;;5.20;;
1414;SDS011;702;49.466;11.086;2023-09-07T08:48:42;5.70;;;5.17;;
1414;SDS011;702;49.466;11.086;2023-09-07T08:51:11;7.23;;;5.43;;
1414;SDS011;702;49.466;11.086;2023-09-07T08:53:39;4.60;;;4.30;;
1414;SDS011;702;49.466;11.086;2023-09-07T08:56:11;5.50;;;5.00;;
1414;SDS011;702;49.466;11.086;2023-09-07T08:58:39;5.87;;;5.30;;
1414;SDS011;702;49.466;11.086;2023-09-07T09:01:07;5.30;;;4.80;;
1414;SDS011;702;49.466;11.086;2023-09-07T09:03:34;5.27;;;4.80;;
1414;SDS011;702;49.466;11.086;2023-09-07T09:06:04;5.80;;;5.30;;
1414;SDS011;702;49.466;11.086;2023-09-07T09:08:41;5.23;;;4.77;;
1414;SDS011;702;49.466;11.086;2023-09-07T09:11:09;5.30;;;4.80;;
1414;SDS011;702;49.466;11.086;2023-09-07T09:13:37;5.60;;;5.20;;
1414;SDS011;702;49.466;11.086;2023-09-07T09:16:06;7.03;;;5.57;;
1414;SDS011;702;49.466;11.086;2023-09-07T09:18:33;5.93;;;5.33;;
1414;SDS011;702;49.466;11.086;2023-09-07T09:21:00;6.23;;;5.57;;
1414;SDS011;702;49.466;11.086;2023-09-07T09:23:31;5.27;;;4.77;;
1414;SDS011;702;49.466;11.086;2023-09-07T09:26:00;5.07;;;4.57;;
1414;SDS011;702;49.466;11.086;2023-09-07T09:28:28;4.97;;;4.57;;
1414;SDS011;702;49.466;11.086;2023-09-07T09:30:58;5.60;;;5.20;;
1414;SDS011;702;49.466;11.086;2023-09-07T09:33:25;5.60;;;5.20;;
1414;SDS011;702;49.466;11.086;2023-09-07T09:35:54;5.30;;;4.90;;
1414;SDS011;702;49.466;11.086;2023-09-07T09:38:22;6.97;;;5.57;;
1414;SDS011;702;49.466;11.086;2023-09-07T09:40:51;5.57;;;5.10;;
1414;SDS011;702;49.466;11.086;2023-09-07T09:43:20;6.53;;;4.37;;
1414;SDS011;702;49.466;11.086;2023-09-07T09:45:49;6.10;;;5.13;;
1414;SDS011;702;49.466;11.086;2023-09-07T09:48:18;4.93;;;4.50;;
1414;SDS011;702;49.466;11.086;2023-09-07T09:50:46;4.30;;;4.00;;
1414;SDS011;702;49.466;11.086;2023-09-07T09:53:14;4.83;;;4.50;;
1414;SDS011;702;49.466;11.086;2023-09-07T09:55:44;4.60;;;4.20;;
1414;SDS011;702;49.466;11.086;2023-09-07T09:58:14;4.93;;;4.43;;
1414;SDS011;702;49.466;11.086;2023-09-07T10:00:42;5.27;;;4.77;;
1414;SDS011;702;49.466;11.086;2023-09-07T10:03:12;4.97;;;4.23;;
1414;SDS011;702;49.466;11.086;2023-09-07T10:05:46;5.27;;;4.87;;
1414;SDS011;702;49.466;11.086;2023-09-07T10:08:13;5.90;;;4.50;;
1414;SDS011;702;49.466;11.086;2023-09-07T10:10:43;5.33;;;4.67;;
1414;SDS011;702;49.466;11.086;2023-09-07T10:13:14;5.70;;;5.20;;
1414;SDS011;702;49.466;11.086;2023-09-07T10:15:42;5.57;;;5.13;;
1414;SDS011;702;49.466;11.086;2023-09-07T10:18:11;4.80;;;4.40;;
1414;SDS011;702;49.466;11.086;2023-09-07T10:20:50;6.33;;;4.80;;
1414;SDS011;702;49.466;11.086;2023-09-07T10:23:22;6.03;;;5.53;;
1414;SDS011;702;49.466;11.086;2023-09-07T10:25:50;6.80;;;4.83;;
1414;SDS011;702;49.466;11.086;2023-09-07T10:28:20;5.93;;;4.80;;
1414;SDS011;702;49.466;11.086;2023-09-07T10:30:58;6.47;;;4.90;;
1414;SDS011;702;49.466;11.086;2023-09-07T10:33:28;4.80;;;4.40;;
1414;SDS011;702;49.466;11.086;2023-09-07T10:35:56;5.77;;;5.30;;
1414;SDS011;702;49.466;11.086;2023-09-07T10:38:24;4.50;;;4.07;;
1414;SDS011;702;49.466;11.086;2023-09-07T10:40:55;4.70;;;4.33;;
1414;SDS011;702;49.466;11.086;2023-09-07T10:43:25;5.27;;;4.87;;
1414;SDS011;702;49.466;11.086;2023-09-07T10:45:53;4.37;;;3.90;;
1414;SDS011;702;49.466;11.086;2023-09-07T10:48:21;5.30;;;4.40;;
1414;SDS011;702;49.466;11.086;2023-09-07T10:50:48;5.80;;;5.20;;
1414;SDS011;702;49.466;11.086;2023-09-07T10:53:24;5.20;;;4.80;;
1414;SDS011;702;49.466;11.086;2023-09-07T10:55:54;5.20;;;4.70;;
1414;SDS011;702;49.466;11.086;2023-09-07T10:58:26;5.17;;;4.50;;
1414;SDS011;702;49.466;11.086;2023-09-07T11:00:56;4.70;;;4.13;;
1414;SDS011;702;49.466;11.086;2023-09-07T11:03:24;4.30;;;4.00;;
1414;SDS011;702;49.466;11.086;2023-09-07T11:05:53;4.40;;;4.00;;
1414;SDS011;702;49.466;11.086;2023-09-07T11:08:23;4.87;;;4.47;;
1414;SDS011;702;49.466;11.086;2023-09-07T11:10:51;4.70;;;4.30;;
1414;SDS011;702;49.466;11.086;2023-09-07T11:13:18;5.00;;;4.60;;
1414;SDS011;702;49.466;11.086;2023-09-07T11:15:47;4.53;;;4.23;;
1414;SDS011;702;49.466;11.086;2023-09-07T11:18:19;4.70;;;3.90;;
1414;SDS011;702;49.466;11.086;2023-09-07T11:20:46;4.80;;;4.40;;
1414;SDS011;702;49.466;11.086;2023-09-07T11:23:15;5.50;;;5.00;;
1414;SDS011;702;49.466;11.086;2023-09-07T11:25:43;4.27;;;3.87;;
1414;SDS011;702;49.466;11.086;2023-09-07T11:28:10;4.80;;;4.40;;
1414;SDS011;702;49.466;11.086;2023-09-07T11:30:47;4.67;;;4.30;;
1414;SDS011;702;49.466;11.086;2023-09-07T11:33:16;6.17;;;4.60;;
1414;SDS011;702;49.466;11.086;2023-09-07T11:35:43;5.60;;;5.10;;
1414;SDS011;702;49.466;11.086;2023-09-07T11:38:12;4.30;;;4.00;;
1414;SDS011;702;49.466;11.086;2023-09-07T11:40:40;5.00;;;4.60;;
1414;SDS011;702;49.466;11.086;2023-09-07T11:43:09;4.93;;;4.47;;
1414;SDS011;702;49.466;11.086;2023-09-07T11:45:38;4.80;;;4.50;;
1414;SDS011;702;49.466;11.086;2023-09-07T11:48:07;4.80;;;4.40;;
1414;SDS011;702;49.466;11.086;2023-09-07T11:50:35;4.93;;;4.43;;
1414;SDS011;702;49.466;11.086;2023-09-07T11:53:05;4.53;;;4.23;;
1414;SDS011;702;49.466;11.086;2023-09-07T11:55:33;6.00;;;5.40;;
1414;SDS011;702;49.466;11.086;2023-09-07T11:58:00;7.70;;;4.30;;
1414;SDS011;702;49.466;11.086;2023-09-07T12:00:28;4.50;;;4.10;;
1414;SDS011;702;49.466;11.086;2023-09-07T12:02:56;4.70;;;4.30;;
1414;SDS011;702;49.466;11.086;2023-09-07T12:05:25;5.00;;;4.60;;
1414;SDS011;702;49.466;11.086;2023-09-07T12:07:53;5.23;;;4.07;;
1414;SDS011;702;49.466;11.086;2023-09-07T12:10:20;4.63;;;4.23;;
1414;SDS011;702;49.466;11.086;2023-09-07T12:12:47;4.63;;;4.20;;
1414;SDS011;702;49.466;11.086;2023-09-07T12:15:14;5.40;;;4.90;;
1414;SDS011;702;49.466;11.086;2023-09-07T12:17:41;5.37;;;4.87;;
1414;SDS011;702;49.466;11.086;2023-09-07T12:20:09;4.37;;;4.07;;
1414;SDS011;702;49.466;11.086;2023-09-07T12:22:39;6.30;;;4.60;;
1414;SDS011;702;49.466;11.086;2023-09-07T12:25:06;5.53;;;4.47;;
1414;SDS011;702;49.466;11.086;2023-09-07T12:27:36;5.40;;;4.90;;
1414;SDS011;702;49.466;11.086;2023-09-07T12:30:03;5.80;;;4.40;;
1414;SDS011;702;49.466;11.086;2023-09-07T12:32:37;4.60;;;4.20;;
1414;SDS011;702;49.466;11.086;2023-09-07T12:35:05;6.60;;;4.50;;
1414;SDS011;702;49.466;11.086;2023-09-07T12:37:34;5.13;;;4.63;;
1414;SDS011;702;49.466;11.086;2023-09-07T12:40:03;4.07;;;3.77;;
1414;SDS011;702;49.466;11.086;2023-09-07T12:42:38;5.07;;;4.67;;
1414;SDS011;702;49.466;11.086;2023-09-07T12:45:06;4.70;;;4.30;;
1414;SDS011;702;49.466;11.086;2023-09-07T12:47:35;4.60;;;4.20;;
1414;SDS011;702;49.466;11.086;2023-09-07T12:50:03;4.93;;;4.27;;
1414;SDS011;702;49.466;11.086;2023-09-07T12:52:32;4.40;;;4.00;;
1414;SDS011;702;49.466;11.086;2023-09-07T12:55:00;5.40;;;4.90;;
1414;SDS011;702;49.466;11.086;2023-09-07T12:57:30;5.13;;;4.53;;
1414;SDS011;702;49.466;11.086;2023-09-07T12:59:57;4.70;;;4.40;;
1414;SDS011;702;49.466;11.086;2023-09-07T13:02:24;6.20;;;4.27;;
1414;SDS011;702;49.466;11.086;2023-09-07T13:04:53;5.07;;;4.40;;
1414;SDS011;702;49.466;11.086;2023-09-07T13:07:21;5.00;;;4.60;;
1414;SDS011;702;49.466;11.086;2023-09-07T13:09:48;5.17;;;4.60;;
1414;SDS011;702;49.466;11.086;2023-09-07T13:12:15;5.10;;;4.70;;
1414;SDS011;702;49.466;11.086;2023-09-07T13:14:44;4.50;;;4.20;;
1414;SDS011;702;49.466;11.086;2023-09-07T13:17:12;5.73;;;4.83;;
1414;SDS011;702;49.466;11.086;2023-09-07T13:19:40;4.90;;;4.40;;
1414;SDS011;702;49.466;11.086;2023-09-07T13:22:08;4.80;;;4.40;;
1414;SDS011;702;49.466;11.086;2023-09-07T13:24:36;5.13;;;4.63;;
1414;SDS011;702;49.466;11.086;2023-09-07T13:27:03;4.63;;;4.23;;
1414;SDS011;702;49.466;11.086;2023-09-07T13:29:31;5.77;;;4.53;;
1414;SDS011;702;49.466;11.086;2023-09-07T13:32:00;5.20;;;4.60;;
1414;SDS011;702;49.466;11.086;2023-09-07T13:34:27;4.47;;;4.07;;
1414;SDS011;702;49.466;11.086;2023-09-07T13:36:54;4.80;;;4.40;;
1414;SDS011;702;49.466;11.086;2023-09-07T13:39:22;4.83;;;4.37;;
1414;SDS011;702;49.466;11.086;2023-09-07T13:41:49;4.70;;;4.30;;
1414;SDS011;702;49.466;11.086;2023-09-07T13:44:17;5.03;;;4.07;;
1414;SDS011;702;49.466;11.086;2023-09-07T13:46:44;4.17;;;3.80;;
1414;SDS011;702;49.466;11.086;2023-09-07T13:49:13;4.70;;;4.20;;
1414;SDS011;702;49.466;11.086;2023-09-07T13:51:40;4.90;;;4.50;;
1414;SDS011;702;49.466;11.086;2023-09-07T13:54:08;4.80;;;4.37;;
1414;SDS011;702;49.466;11.086;2023-09-07T13:56:36;4.67;;;4.23;;
1414;SDS011;702;49.466;11.086;2023-09-07T13:59:03;4.37;;;3.97;;
1414;SDS011;702;49.466;11.086;2023-09-07T14:01:31;5.13;;;4.37;;
1414;SDS011;702;49.466;11.086;2023-09-07T14:03:58;4.97;;;4.53;;
1414;SDS011;702;49.466;11.086;2023-09-07T14:06:27;4.37;;;4.07;;
1414;SDS011;702;49.466;11.086;2023-09-07T14:08:54;4.47;;;4.13;;
1414;SDS011;702;49.466;11.086;2023-09-07T14:11:21;5.47;;;4.93;;
1414;SDS011;702;49.466;11.086;2023-09-07T14:13:48;4.80;;;4.40;;
1414;SDS011;702;49.466;11.086;2023-09-07T14:16:17;4.67;;;4.27;;
1414;SDS011;702;49.466;11.086;2023-09-07T14:18:45;4.93;;;4.53;;
1414;SDS011;702;49.466;11.086;2023-09-07T14:21:13;4.80;;;4.40;;
1414;SDS011;702;49.466;11.086;2023-09-07T14:23:43;5.97;;;4.27;;
1414;SDS011;702;49.466;11.086;2023-09-07T14:26:10;4.80;;;4.40;;
1414;SDS011;702;49.466;11.086;2023-09-07T14:28:38;4.70;;;4.30;;
1414;SDS011;702;49.466;11.086;2023-09-07T14:31:05;4.63;;;4.20;;
1414;SDS011;702;49.466;11.086;2023-09-07T14:33:33;3.93;;;3.63;;
1414;SDS011;702;49.466;11.086;2023-09-07T14:36:04;4.57;;;4.10;;
1414;SDS011;702;49.466;11.086;2023-09-07T14:38:32;5.07;;;4.13;;
1414;SDS011;702;49.466;11.086;2023-09-07T14:41:07;4.50;;;4.10;;
1414;SDS011;702;49.466;11.086;2023-09-07T14:43:36;4.70;;;4.40;;
1414;SDS011;702;49.466;11.086;2023-09-07T14:46:03;5.13;;;4.50;;
1414;SDS011;702;49.466;11.086;2023-09-07T14:48:31;4.90;;;4.50;;
1414;SDS011;702;49.466;11.086;2023-09-07T14:50:58;6.60;;;4.50;;
1414;SDS011;702;49.466;11.086;2023-09-07T14:53:25;4.63;;;4.20;;
1414;SDS011;702;49.466;11.086;2023-09-07T14:55:53;4.43;;;4.03;;
1414;SDS011;702;49.466;11.086;2023-09-07T14:58:21;5.97;;;4.90;;
1414;SDS011;702;49.466;11.086;2023-09-07T15:00:48;4.77;;;4.37;;
1414;SDS011;702;49.466;11.086;2023-09-07T15:03:15;4.83;;;4.43;;
1414;SDS011;702;49.466;11.086;2023-09-07T15:05:42;4.30;;;3.90;;
1414;SDS011;702;49.466;11.086;2023-09-07T15:08:10;7.63;;;3.87;;
1414;SDS011;702;49.466;11.086;2023-09-07T15:10:37;4.70;;;4.30;;
1414;SDS011;702;49.466;11.086;2023-09-07T15:13:05;5.17;;;4.77;;
1414;SDS011;702;49.466;11.086;2023-09-07T15:15:34;7.13;;;4.57;;
1414;SDS011;702;49.466;11.086;2023-09-07T15:18:04;4.80;;;4.40;;
1414;SDS011;702;49.466;11.086;2023-09-07T15:20:32;5.60;;;4.83;;